Main page
METAR-TAF:

METAR-TAF

Airports :

Indira Gandhi International Airport

New Delhi, India

latitude: 28-34N, longitude: 077-07E, elevation: 220 m

Current weather observation

The report was made 17 minutes ago, at 22:00 UTC
Calm wind
Temperature 10°C
Humidity 100%
Pressure 1016 hPa
Visibility: 1200 m
Scattered clouds at a height of 10000 ft
mist

METAR: VIDP 222200Z 00000KT 1200 R28/P2000 R29/P2000 BR SCT100 10/10 Q1016 NOSIG

Time: 03:47 (22:17 UTC)

Forecast

The report was made 2 hours and 17 minutes ago, at 20:00 UTC
Forecast valid from 22 at 21 UTC to 23 at 06 UTC
Wind 4 kt from the East
Visibility: 1500 m
Few clouds at a height of 3500 ft
Scattered clouds at a height of 10000 ft
mist
Becoming
from 23 at 00 UTC to 23 at 02 UTC
Visibility: 0600 m
Shallow fog
Becoming
from 23 at 04 UTC to 23 at 05 UTC
Visibility: 1000 m
mist, light rain

TAF: VIDP 222000Z 2221/2306 09004KT 1500 BR FEW035 SCT100 BECMG 2300/2302 0600 MIFG BECMG 2304/2305 1000 BR -RA

Weather observations and forecasts of more than 4000 airports (METAR and TAF reports).

The available stations are represented by yellow and red dots on the map.

Hover mouse over dot to see the name of the station.

Then click to see weather observations and forecasts.

To change the map : click on the green buttons with a black cross to zoom in, on the green button with a dash to zoom out, or on the green arrows for adjacent maps.


METAR-TAF: